sensor_id;sensor_type;location;lat;lon;timestamp;P1;durP1;ratioP1;P2;durP2;ratioP2
77400;SDS011;74775;45.476;11.016;2024-02-14T00:00:54;11.80;;;7.00;;
77400;SDS011;74775;45.476;11.016;2024-02-14T00:03:22;13.40;;;7.30;;
77400;SDS011;74775;45.476;11.016;2024-02-14T00:05:50;12.90;;;7.00;;
77400;SDS011;74775;45.476;11.016;2024-02-14T00:08:19;13.00;;;7.80;;
77400;SDS011;74775;45.476;11.016;2024-02-14T00:10:48;14.20;;;8.50;;
77400;SDS011;74775;45.476;11.016;2024-02-14T00:13:15;12.40;;;7.90;;
77400;SDS011;74775;45.476;11.016;2024-02-14T00:15:45;14.30;;;8.20;;
77400;SDS011;74775;45.476;11.016;2024-02-14T00:18:13;14.70;;;8.90;;
77400;SDS011;74775;45.476;11.016;2024-02-14T00:20:42;17.50;;;8.80;;
77400;SDS011;74775;45.476;11.016;2024-02-14T00:23:09;15.70;;;8.50;;
77400;SDS011;74775;45.476;11.016;2024-02-14T00:25:36;16.20;;;8.90;;
77400;SDS011;74775;45.476;11.016;2024-02-14T00:28:03;13.40;;;7.60;;
77400;SDS011;74775;45.476;11.016;2024-02-14T00:30:32;13.20;;;6.80;;
77400;SDS011;74775;45.476;11.016;2024-02-14T00:32:59;11.00;;;6.50;;
77400;SDS011;74775;45.476;11.016;2024-02-14T00:35:26;12.30;;;6.80;;
77400;SDS011;74775;45.476;11.016;2024-02-14T00:37:53;12.50;;;7.00;;
77400;SDS011;74775;45.476;11.016;2024-02-14T00:40:20;13.20;;;7.40;;
77400;SDS011;74775;45.476;11.016;2024-02-14T00:42:47;12.30;;;7.50;;
77400;SDS011;74775;45.476;11.016;2024-02-14T00:45:13;12.90;;;7.50;;
77400;SDS011;74775;45.476;11.016;2024-02-14T00:47:40;12.70;;;7.20;;
77400;SDS011;74775;45.476;11.016;2024-02-14T00:52:36;16.00;;;8.70;;
77400;SDS011;74775;45.476;11.016;2024-02-14T00:55:03;15.50;;;8.50;;
77400;SDS011;74775;45.476;11.016;2024-02-14T00:57:30;14.90;;;8.30;;
77400;SDS011;74775;45.476;11.016;2024-02-14T00:59:59;13.90;;;8.30;;
77400;SDS011;74775;45.476;11.016;2024-02-14T01:02:27;16.40;;;8.80;;
77400;SDS011;74775;45.476;11.016;2024-02-14T01:04:54;15.70;;;8.50;;
77400;SDS011;74775;45.476;11.016;2024-02-14T01:07:21;15.70;;;8.70;;
77400;SDS011;74775;45.476;11.016;2024-02-14T01:09:47;14.50;;;9.00;;
77400;SDS011;74775;45.476;11.016;2024-02-14T01:12:14;16.00;;;8.80;;
77400;SDS011;74775;45.476;11.016;2024-02-14T01:14:41;14.90;;;8.90;;
77400;SDS011;74775;45.476;11.016;2024-02-14T01:17:08;14.00;;;7.90;;
77400;SDS011;74775;45.476;11.016;2024-02-14T01:19:35;12.70;;;7.90;;
77400;SDS011;74775;45.476;11.016;2024-02-14T01:22:02;15.30;;;8.20;;
77400;SDS011;74775;45.476;11.016;2024-02-14T01:24:30;12.90;;;7.50;;
77400;SDS011;74775;45.476;11.016;2024-02-14T01:26:57;13.80;;;8.00;;
77400;SDS011;74775;45.476;11.016;2024-02-14T01:29:25;14.60;;;8.50;;
77400;SDS011;74775;45.476;11.016;2024-02-14T01:31:52;14.70;;;8.40;;
77400;SDS011;74775;45.476;11.016;2024-02-14T01:34:19;15.90;;;8.70;;
77400;SDS011;74775;45.476;11.016;2024-02-14T01:36:47;16.30;;;9.00;;
77400;SDS011;74775;45.476;11.016;2024-02-14T01:39:14;13.30;;;7.90;;
77400;SDS011;74775;45.476;11.016;2024-02-14T01:41:47;15.20;;;8.90;;
77400;SDS011;74775;45.476;11.016;2024-02-14T01:44:15;12.50;;;7.60;;
77400;SDS011;74775;45.476;11.016;2024-02-14T01:46:43;10.70;;;6.20;;
77400;SDS011;74775;45.476;11.016;2024-02-14T01:49:11;13.40;;;7.20;;
77400;SDS011;74775;45.476;11.016;2024-02-14T01:51:42;12.90;;;7.00;;
77400;SDS011;74775;45.476;11.016;2024-02-14T01:54:12;11.80;;;6.30;;
77400;SDS011;74775;45.476;11.016;2024-02-14T01:56:42;12.30;;;6.70;;
77400;SDS011;74775;45.476;11.016;2024-02-14T01:59:09;15.10;;;7.90;;
77400;SDS011;74775;45.476;11.016;2024-02-14T02:01:36;13.30;;;7.70;;
77400;SDS011;74775;45.476;11.016;2024-02-14T02:04:03;15.60;;;7.60;;
77400;SDS011;74775;45.476;11.016;2024-02-14T02:06:30;10.10;;;5.50;;
77400;SDS011;74775;45.476;11.016;2024-02-14T02:08:57;8.40;;;4.80;;
77400;SDS011;74775;45.476;11.016;2024-02-14T02:11:25;7.10;;;3.80;;
77400;SDS011;74775;45.476;11.016;2024-02-14T02:13:53;6.20;;;3.50;;
77400;SDS011;74775;45.476;11.016;2024-02-14T02:16:19;6.00;;;3.20;;
77400;SDS011;74775;45.476;11.016;2024-02-14T02:18:48;6.90;;;3.80;;
77400;SDS011;74775;45.476;11.016;2024-02-14T02:21:17;9.70;;;3.60;;
77400;SDS011;74775;45.476;11.016;2024-02-14T02:23:50;4.60;;;2.80;;
77400;SDS011;74775;45.476;11.016;2024-02-14T02:26:17;6.60;;;3.00;;
77400;SDS011;74775;45.476;11.016;2024-02-14T02:28:44;3.90;;;2.40;;
77400;SDS011;74775;45.476;11.016;2024-02-14T02:31:11;4.60;;;2.50;;
77400;SDS011;74775;45.476;11.016;2024-02-14T02:33:37;4.50;;;2.40;;
77400;SDS011;74775;45.476;11.016;2024-02-14T02:36:05;4.00;;;2.30;;
77400;SDS011;74775;45.476;11.016;2024-02-14T02:38:34;3.90;;;2.10;;
77400;SDS011;74775;45.476;11.016;2024-02-14T02:41:01;4.20;;;2.40;;
77400;SDS011;74775;45.476;11.016;2024-02-14T02:43:28;6.50;;;3.10;;
77400;SDS011;74775;45.476;11.016;2024-02-14T02:45:55;5.20;;;3.00;;
77400;SDS011;74775;45.476;11.016;2024-02-14T02:48:23;5.90;;;2.90;;
77400;SDS011;74775;45.476;11.016;2024-02-14T02:50:51;3.90;;;2.30;;
77400;SDS011;74775;45.476;11.016;2024-02-14T02:53:19;4.60;;;2.60;;
77400;SDS011;74775;45.476;11.016;2024-02-14T02:55:46;4.70;;;2.30;;
77400;SDS011;74775;45.476;11.016;2024-02-14T02:58:13;4.50;;;2.30;;
77400;SDS011;74775;45.476;11.016;2024-02-14T03:00:44;4.70;;;2.50;;
77400;SDS011;74775;45.476;11.016;2024-02-14T03:03:11;5.80;;;2.10;;
77400;SDS011;74775;45.476;11.016;2024-02-14T03:05:38;6.40;;;2.40;;
77400;SDS011;74775;45.476;11.016;2024-02-14T03:08:05;4.10;;;2.20;;
77400;SDS011;74775;45.476;11.016;2024-02-14T03:10:34;4.50;;;2.20;;
77400;SDS011;74775;45.476;11.016;2024-02-14T03:13:01;3.50;;;1.50;;
77400;SDS011;74775;45.476;11.016;2024-02-14T03:15:28;2.80;;;1.60;;
77400;SDS011;74775;45.476;11.016;2024-02-14T03:17:55;3.10;;;1.40;;
77400;SDS011;74775;45.476;11.016;2024-02-14T03:20:22;2.00;;;1.20;;
77400;SDS011;74775;45.476;11.016;2024-02-14T03:22:50;2.30;;;1.30;;
77400;SDS011;74775;45.476;11.016;2024-02-14T03:25:17;3.70;;;1.20;;
77400;SDS011;74775;45.476;11.016;2024-02-14T03:27:44;1.70;;;1.10;;
77400;SDS011;74775;45.476;11.016;2024-02-14T03:30:14;3.50;;;1.60;;
77400;SDS011;74775;45.476;11.016;2024-02-14T03:32:43;3.00;;;1.80;;
77400;SDS011;74775;45.476;11.016;2024-02-14T03:35:12;2.70;;;1.50;;
77400;SDS011;74775;45.476;11.016;2024-02-14T03:37:42;3.20;;;2.00;;
77400;SDS011;74775;45.476;11.016;2024-02-14T03:40:10;3.80;;;1.90;;
77400;SDS011;74775;45.476;11.016;2024-02-14T03:42:38;3.60;;;2.00;;
77400;SDS011;74775;45.476;11.016;2024-02-14T03:45:08;3.90;;;2.10;;
77400;SDS011;74775;45.476;11.016;2024-02-14T03:47:36;2.80;;;1.70;;
77400;SDS011;74775;45.476;11.016;2024-02-14T03:50:07;2.50;;;1.40;;
77400;SDS011;74775;45.476;11.016;2024-02-14T03:52:35;2.70;;;1.60;;
77400;SDS011;74775;45.476;11.016;2024-02-14T03:55:02;3.60;;;1.20;;
77400;SDS011;74775;45.476;11.016;2024-02-14T03:57:29;1.90;;;1.10;;
77400;SDS011;74775;45.476;11.016;2024-02-14T03:59:58;2.20;;;0.90;;
77400;SDS011;74775;45.476;11.016;2024-02-14T04:02:37;2.50;;;0.80;;
77400;SDS011;74775;45.476;11.016;2024-02-14T04:05:07;2.10;;;1.00;;
77400;SDS011;74775;45.476;11.016;2024-02-14T04:07:34;1.80;;;1.00;;
77400;SDS011;74775;45.476;11.016;2024-02-14T04:10:03;2.20;;;1.20;;
77400;SDS011;74775;45.476;11.016;2024-02-14T04:12:30;2.20;;;0.90;;
77400;SDS011;74775;45.476;11.016;2024-02-14T04:14:57;3.20;;;1.40;;
77400;SDS011;74775;45.476;11.016;2024-02-14T04:17:24;1.80;;;1.10;;
77400;SDS011;74775;45.476;11.016;2024-02-14T04:19:51;2.90;;;1.10;;
77400;SDS011;74775;45.476;11.016;2024-02-14T04:22:18;3.00;;;1.00;;
77400;SDS011;74775;45.476;11.016;2024-02-14T04:24:45;1.90;;;1.10;;
77400;SDS011;74775;45.476;11.016;2024-02-14T04:27:12;4.50;;;2.10;;
77400;SDS011;74775;45.476;11.016;2024-02-14T04:29:39;3.70;;;2.20;;
77400;SDS011;74775;45.476;11.016;2024-02-14T04:32:06;5.10;;;3.20;;
77400;SDS011;74775;45.476;11.016;2024-02-14T04:34:33;7.90;;;4.20;;
77400;SDS011;74775;45.476;11.016;2024-02-14T04:37:00;6.80;;;4.20;;
77400;SDS011;74775;45.476;11.016;2024-02-14T04:39:29;7.20;;;3.00;;
77400;SDS011;74775;45.476;11.016;2024-02-14T04:41:56;4.60;;;2.70;;
77400;SDS011;74775;45.476;11.016;2024-02-14T04:44:28;4.30;;;2.80;;
77400;SDS011;74775;45.476;11.016;2024-02-14T04:46:56;5.30;;;3.30;;
77400;SDS011;74775;45.476;11.016;2024-02-14T04:49:26;6.70;;;3.70;;
77400;SDS011;74775;45.476;11.016;2024-02-14T04:51:56;7.30;;;4.00;;
77400;SDS011;74775;45.476;11.016;2024-02-14T04:54:24;9.10;;;5.00;;
77400;SDS011;74775;45.476;11.016;2024-02-14T04:56:53;8.70;;;4.70;;
77400;SDS011;74775;45.476;11.016;2024-02-14T04:59:24;7.10;;;4.00;;
77400;SDS011;74775;45.476;11.016;2024-02-14T05:01:52;7.10;;;3.80;;
77400;SDS011;74775;45.476;11.016;2024-02-14T05:06:48;6.20;;;3.20;;
77400;SDS011;74775;45.476;11.016;2024-02-14T05:09:17;7.50;;;2.90;;
77400;SDS011;74775;45.476;11.016;2024-02-14T05:11:44;6.90;;;3.40;;
77400;SDS011;74775;45.476;11.016;2024-02-14T05:14:11;6.50;;;3.80;;
77400;SDS011;74775;45.476;11.016;2024-02-14T05:16:38;5.30;;;3.30;;
77400;SDS011;74775;45.476;11.016;2024-02-14T05:19:05;7.60;;;4.00;;
77400;SDS011;74775;45.476;11.016;2024-02-14T05:21:32;6.90;;;3.50;;
77400;SDS011;74775;45.476;11.016;2024-02-14T05:23:59;6.60;;;3.70;;
77400;SDS011;74775;45.476;11.016;2024-02-14T05:26:26;6.40;;;3.50;;
77400;SDS011;74775;45.476;11.016;2024-02-14T05:28:53;6.70;;;3.30;;
77400;SDS011;74775;45.476;11.016;2024-02-14T05:31:20;7.00;;;4.00;;
77400;SDS011;74775;45.476;11.016;2024-02-14T05:33:47;8.20;;;3.80;;
77400;SDS011;74775;45.476;11.016;2024-02-14T05:36:14;7.70;;;4.10;;
77400;SDS011;74775;45.476;11.016;2024-02-14T05:38:41;6.90;;;3.70;;
77400;SDS011;74775;45.476;11.016;2024-02-14T05:41:08;7.80;;;4.10;;
77400;SDS011;74775;45.476;11.016;2024-02-14T05:43:35;8.40;;;4.50;;
77400;SDS011;74775;45.476;11.016;2024-02-14T05:46:02;7.10;;;4.40;;
77400;SDS011;74775;45.476;11.016;2024-02-14T05:48:29;9.30;;;4.90;;
77400;SDS011;74775;45.476;11.016;2024-02-14T05:50:56;8.50;;;4.90;;
77400;SDS011;74775;45.476;11.016;2024-02-14T05:53:23;10.30;;;5.20;;
77400;SDS011;74775;45.476;11.016;2024-02-14T05:55:50;8.90;;;4.70;;
77400;SDS011;74775;45.476;11.016;2024-02-14T05:58:20;7.80;;;4.20;;
77400;SDS011;74775;45.476;11.016;2024-02-14T06:00:46;7.10;;;4.30;;
77400;SDS011;74775;45.476;11.016;2024-02-14T06:03:13;9.60;;;5.40;;
77400;SDS011;74775;45.476;11.016;2024-02-14T06:05:40;11.40;;;5.90;;
77400;SDS011;74775;45.476;11.016;2024-02-14T06:08:07;10.10;;;5.40;;
77400;SDS011;74775;45.476;11.016;2024-02-14T06:10:34;13.00;;;6.80;;
77400;SDS011;74775;45.476;11.016;2024-02-14T06:13:01;11.80;;;6.30;;
77400;SDS011;74775;45.476;11.016;2024-02-14T06:15:28;12.40;;;6.70;;
77400;SDS011;74775;45.476;11.016;2024-02-14T06:17:55;11.80;;;7.10;;
77400;SDS011;74775;45.476;11.016;2024-02-14T06:20:23;12.00;;;7.20;;
77400;SDS011;74775;45.476;11.016;2024-02-14T06:22:50;15.30;;;8.30;;
77400;SDS011;74775;45.476;11.016;2024-02-14T06:25:30;13.90;;;7.50;;
77400;SDS011;74775;45.476;11.016;2024-02-14T06:27:57;13.40;;;7.00;;
77400;SDS011;74775;45.476;11.016;2024-02-14T06:30:24;13.70;;;7.20;;
77400;SDS011;74775;45.476;11.016;2024-02-14T06:32:56;14.40;;;7.60;;
77400;SDS011;74775;45.476;11.016;2024-02-14T06:35:29;13.10;;;7.50;;
77400;SDS011;74775;45.476;11.016;2024-02-14T06:37:57;14.40;;;7.50;;
77400;SDS011;74775;45.476;11.016;2024-02-14T06:40:30;15.40;;;7.50;;
77400;SDS011;74775;45.476;11.016;2024-02-14T06:42:57;12.80;;;6.50;;
77400;SDS011;74775;45.476;11.016;2024-02-14T06:45:27;10.70;;;6.00;;
77400;SDS011;74775;45.476;11.016;2024-02-14T06:47:54;9.40;;;5.80;;
77400;SDS011;74775;45.476;11.016;2024-02-14T06:50:22;8.70;;;5.60;;
77400;SDS011;74775;45.476;11.016;2024-02-14T06:52:52;13.50;;;5.70;;
77400;SDS011;74775;45.476;11.016;2024-02-14T06:55:19;10.30;;;4.50;;
77400;SDS011;74775;45.476;11.016;2024-02-14T06:57:46;10.60;;;5.50;;
77400;SDS011;74775;45.476;11.016;2024-02-14T07:00:13;14.20;;;7.20;;
77400;SDS011;74775;45.476;11.016;2024-02-14T07:02:41;14.70;;;7.50;;
77400;SDS011;74775;45.476;11.016;2024-02-14T07:05:10;14.90;;;7.50;;
77400;SDS011;74775;45.476;11.016;2024-02-14T07:07:40;15.80;;;7.00;;
77400;SDS011;74775;45.476;11.016;2024-02-14T07:10:07;11.30;;;6.40;;
77400;SDS011;74775;45.476;11.016;2024-02-14T07:12:35;9.80;;;4.90;;
77400;SDS011;74775;45.476;11.016;2024-02-14T07:15:04;8.20;;;4.50;;
77400;SDS011;74775;45.476;11.016;2024-02-14T07:17:32;7.40;;;3.70;;
77400;SDS011;74775;45.476;11.016;2024-02-14T07:20:00;8.90;;;4.60;;
77400;SDS011;74775;45.476;11.016;2024-02-14T07:22:28;8.70;;;4.70;;
77400;SDS011;74775;45.476;11.016;2024-02-14T07:24:57;9.90;;;4.80;;
77400;SDS011;74775;45.476;11.016;2024-02-14T07:27:24;11.60;;;4.70;;
77400;SDS011;74775;45.476;11.016;2024-02-14T07:29:51;11.50;;;5.70;;
77400;SDS011;74775;45.476;11.016;2024-02-14T07:32:18;11.70;;;6.10;;
77400;SDS011;74775;45.476;11.016;2024-02-14T07:34:45;11.70;;;6.20;;
77400;SDS011;74775;45.476;11.016;2024-02-14T07:37:13;12.40;;;6.00;;
77400;SDS011;74775;45.476;11.016;2024-02-14T07:39:42;9.30;;;5.90;;
77400;SDS011;74775;45.476;11.016;2024-02-14T07:42:08;10.80;;;6.00;;
77400;SDS011;74775;45.476;11.016;2024-02-14T07:44:35;10.30;;;5.40;;
77400;SDS011;74775;45.476;11.016;2024-02-14T07:47:02;9.80;;;5.10;;
77400;SDS011;74775;45.476;11.016;2024-02-14T07:49:33;10.30;;;4.00;;
77400;SDS011;74775;45.476;11.016;2024-02-14T07:52:00;8.70;;;3.90;;
77400;SDS011;74775;45.476;11.016;2024-02-14T07:54:27;10.00;;;4.10;;
77400;SDS011;74775;45.476;11.016;2024-02-14T07:56:54;7.40;;;3.70;;
77400;SDS011;74775;45.476;11.016;2024-02-14T07:59:21;6.50;;;3.30;;
77400;SDS011;74775;45.476;11.016;2024-02-14T08:01:47;6.70;;;3.90;;
77400;SDS011;74775;45.476;11.016;2024-02-14T08:04:14;11.40;;;4.00;;
77400;SDS011;74775;45.476;11.016;2024-02-14T08:06:44;10.00;;;4.40;;
77400;SDS011;74775;45.476;11.016;2024-02-14T08:09:12;9.00;;;4.40;;
77400;SDS011;74775;45.476;11.016;2024-02-14T08:11:39;11.10;;;4.40;;
77400;SDS011;74775;45.476;11.016;2024-02-14T08:14:06;9.50;;;3.60;;
77400;SDS011;74775;45.476;11.016;2024-02-14T08:16:33;9.60;;;3.60;;
77400;SDS011;74775;45.476;11.016;2024-02-14T08:19:00;9.20;;;4.00;;
77400;SDS011;74775;45.476;11.016;2024-02-14T08:21:27;9.70;;;3.50;;
77400;SDS011;74775;45.476;11.016;2024-02-14T08:23:57;8.20;;;3.20;;
77400;SDS011;74775;45.476;11.016;2024-02-14T08:26:27;7.50;;;3.80;;
77400;SDS011;74775;45.476;11.016;2024-02-14T08:28:55;7.40;;;3.50;;
77400;SDS011;74775;45.476;11.016;2024-02-14T08:31:22;8.90;;;3.60;;
77400;SDS011;74775;45.476;11.016;2024-02-14T08:33:49;6.00;;;3.40;;
77400;SDS011;74775;45.476;11.016;2024-02-14T08:36:17;8.70;;;4.20;;
77400;SDS011;74775;45.476;11.016;2024-02-14T08:38:46;6.80;;;3.70;;
77400;SDS011;74775;45.476;11.016;2024-02-14T08:41:14;7.70;;;4.00;;
77400;SDS011;74775;45.476;11.016;2024-02-14T08:43:41;5.90;;;3.40;;
77400;SDS011;74775;45.476;11.016;2024-02-14T08:46:13;6.70;;;3.80;;
77400;SDS011;74775;45.476;11.016;2024-02-14T08:48:41;6.00;;;4.00;;
77400;SDS011;74775;45.476;11.016;2024-02-14T08:51:15;8.90;;;3.70;;
77400;SDS011;74775;45.476;11.016;2024-02-14T08:53:44;6.80;;;3.40;;
77400;SDS011;74775;45.476;11.016;2024-02-14T08:56:12;6.60;;;3.70;;
77400;SDS011;74775;45.476;11.016;2024-02-14T08:58:40;8.20;;;3.70;;
77400;SDS011;74775;45.476;11.016;2024-02-14T09:01:07;5.20;;;3.10;;
77400;SDS011;74775;45.476;11.016;2024-02-14T09:03:42;7.00;;;3.50;;
77400;SDS011;74775;45.476;11.016;2024-02-14T09:06:16;8.40;;;3.60;;
77400;SDS011;74775;45.476;11.016;2024-02-14T09:08:44;6.30;;;3.10;;
77400;SDS011;74775;45.476;11.016;2024-02-14T09:11:11;9.10;;;3.50;;
77400;SDS011;74775;45.476;11.016;2024-02-14T09:13:39;8.50;;;4.70;;
77400;SDS011;74775;45.476;11.016;2024-02-14T09:16:09;8.60;;;4.40;;
77400;SDS011;74775;45.476;11.016;2024-02-14T09:18:37;11.30;;;5.30;;
77400;SDS011;74775;45.476;11.016;2024-02-14T09:21:05;9.30;;;4.60;;
77400;SDS011;74775;45.476;11.016;2024-02-14T09:23:32;8.10;;;4.50;;
77400;SDS011;74775;45.476;11.016;2024-02-14T09:26:00;7.00;;;4.30;;
77400;SDS011;74775;45.476;11.016;2024-02-14T09:28:28;10.30;;;5.40;;
77400;SDS011;74775;45.476;11.016;2024-02-14T09:30:56;14.90;;;7.30;;
77400;SDS011;74775;45.476;11.016;2024-02-14T09:33:23;14.00;;;7.40;;
77400;SDS011;74775;45.476;11.016;2024-02-14T09:35:50;16.00;;;8.10;;
77400;SDS011;74775;45.476;11.016;2024-02-14T09:38:19;12.20;;;7.50;;
77400;SDS011;74775;45.476;11.016;2024-02-14T09:40:46;14.40;;;8.60;;
77400;SDS011;74775;45.476;11.016;2024-02-14T09:46:01;14.20;;;7.90;;
77400;SDS011;74775;45.476;11.016;2024-02-14T09:48:29;13.10;;;8.10;;
77400;SDS011;74775;45.476;11.016;2024-02-14T09:50:57;14.30;;;8.20;;
77400;SDS011;74775;45.476;11.016;2024-02-14T09:53:24;15.90;;;8.00;;
77400;SDS011;74775;45.476;11.016;2024-02-14T09:55:52;17.00;;;8.60;;
77400;SDS011;74775;45.476;11.016;2024-02-14T09:58:21;13.30;;;8.10;;
77400;SDS011;74775;45.476;11.016;2024-02-14T10:00:49;16.20;;;8.40;;
77400;SDS011;74775;45.476;11.016;2024-02-14T10:03:23;15.20;;;8.80;;
77400;SDS011;74775;45.476;11.016;2024-02-14T10:05:50;15.00;;;8.20;;
77400;SDS011;74775;45.476;11.016;2024-02-14T10:08:18;17.20;;;8.60;;
77400;SDS011;74775;45.476;11.016;2024-02-14T10:10:45;14.50;;;8.60;;
77400;SDS011;74775;45.476;11.016;2024-02-14T10:13:17;14.00;;;7.70;;
77400;SDS011;74775;45.476;11.016;2024-02-14T10:15:45;12.20;;;7.30;;
77400;SDS011;74775;45.476;11.016;2024-02-14T10:18:14;13.50;;;7.60;;
77400;SDS011;74775;45.476;11.016;2024-02-14T10:20:55;15.60;;;9.00;;
77400;SDS011;74775;45.476;11.016;2024-02-14T10:23:23;10.80;;;6.60;;
77400;SDS011;74775;45.476;11.016;2024-02-14T10:25:52;11.50;;;6.70;;
77400;SDS011;74775;45.476;11.016;2024-02-14T10:28:20;11.70;;;6.60;;
77400;SDS011;74775;45.476;11.016;2024-02-14T10:30:58;10.20;;;5.80;;
77400;SDS011;74775;45.476;11.016;2024-02-14T10:33:29;10.70;;;5.70;;
77400;SDS011;74775;45.476;11.016;2024-02-14T10:35:57;11.60;;;5.90;;
77400;SDS011;74775;45.476;11.016;2024-02-14T10:38:31;7.80;;;5.20;;
77400;SDS011;74775;45.476;11.016;2024-02-14T10:41:02;11.10;;;6.10;;
77400;SDS011;74775;45.476;11.016;2024-02-14T10:43:31;12.30;;;5.90;;
77400;SDS011;74775;45.476;11.016;2024-02-14T10:46:04;9.20;;;4.90;;
77400;SDS011;74775;45.476;11.016;2024-02-14T10:51:02;7.20;;;4.50;;
77400;SDS011;74775;45.476;11.016;2024-02-14T10:53:29;9.50;;;5.00;;
77400;SDS011;74775;45.476;11.016;2024-02-14T10:56:00;8.40;;;5.00;;
77400;SDS011;74775;45.476;11.016;2024-02-14T10:58:28;10.00;;;4.80;;
77400;SDS011;74775;45.476;11.016;2024-02-14T11:00:56;8.30;;;5.00;;
77400;SDS011;74775;45.476;11.016;2024-02-14T11:03:23;9.60;;;4.70;;
77400;SDS011;74775;45.476;11.016;2024-02-14T11:05:53;7.40;;;4.80;;
77400;SDS011;74775;45.476;11.016;2024-02-14T11:08:28;9.10;;;5.20;;
77400;SDS011;74775;45.476;11.016;2024-02-14T11:10:59;9.30;;;5.70;;
77400;SDS011;74775;45.476;11.016;2024-02-14T11:13:29;10.00;;;5.40;;
77400;SDS011;74775;45.476;11.016;2024-02-14T11:16:02;7.90;;;4.40;;
77400;SDS011;74775;45.476;11.016;2024-02-14T11:18:31;11.80;;;5.60;;
77400;SDS011;74775;45.476;11.016;2024-02-14T11:21:04;7.60;;;4.60;;
77400;SDS011;74775;45.476;11.016;2024-02-14T11:23:52;9.00;;;5.10;;
77400;SDS011;74775;45.476;11.016;2024-02-14T11:26:20;8.60;;;5.80;;
77400;SDS011;74775;45.476;11.016;2024-02-14T11:28:49;10.20;;;5.20;;
77400;SDS011;74775;45.476;11.016;2024-02-14T11:31:31;11.20;;;5.50;;
77400;SDS011;74775;45.476;11.016;2024-02-14T11:34:02;9.00;;;5.10;;
77400;SDS011;74775;45.476;11.016;2024-02-14T11:36:31;9.10;;;6.00;;
77400;SDS011;74775;45.476;11.016;2024-02-14T11:39:02;9.10;;;5.10;;
77400;SDS011;74775;45.476;11.016;2024-02-14T11:41:30;12.70;;;5.70;;
77400;SDS011;74775;45.476;11.016;2024-02-14T11:44:03;11.10;;;5.60;;
77400;SDS011;74775;45.476;11.016;2024-02-14T11:46:32;11.50;;;5.60;;
77400;SDS011;74775;45.476;11.016;2024-02-14T11:48:59;8.70;;;5.80;;
77400;SDS011;74775;45.476;11.016;2024-02-14T11:53:58;7.90;;;5.10;;
77400;SDS011;74775;45.476;11.016;2024-02-14T11:56:32;9.80;;;5.60;;
77400;SDS011;74775;45.476;11.016;2024-02-14T11:59:03;9.00;;;5.60;;
77400;SDS011;74775;45.476;11.016;2024-02-14T12:01:31;9.00;;;6.00;;
77400;SDS011;74775;45.476;11.016;2024-02-14T12:04:00;10.80;;;6.30;;
77400;SDS011;74775;45.476;11.016;2024-02-14T12:06:28;9.70;;;5.30;;
77400;SDS011;74775;45.476;11.016;2024-02-14T12:08:58;10.70;;;5.70;;
77400;SDS011;74775;45.476;11.016;2024-02-14T12:11:32;9.30;;;5.70;;
77400;SDS011;74775;45.476;11.016;2024-02-14T12:14:01;8.80;;;5.50;;
77400;SDS011;74775;45.476;11.016;2024-02-14T12:16:29;9.20;;;5.10;;
77400;SDS011;74775;45.476;11.016;2024-02-14T12:19:05;9.90;;;5.30;;
77400;SDS011;74775;45.476;11.016;2024-02-14T12:21:37;9.20;;;5.30;;
77400;SDS011;74775;45.476;11.016;2024-02-14T12:24:08;12.00;;;5.60;;
77400;SDS011;74775;45.476;11.016;2024-02-14T12:26:37;8.20;;;5.20;;
77400;SDS011;74775;45.476;11.016;2024-02-14T12:29:04;10.40;;;5.60;;
77400;SDS011;74775;45.476;11.016;2024-02-14T12:31:33;9.10;;;4.90;;
77400;SDS011;74775;45.476;11.016;2024-02-14T12:34:00;8.70;;;5.10;;
77400;SDS011;74775;45.476;11.016;2024-02-14T12:36:30;8.70;;;6.30;;
77400;SDS011;74775;45.476;11.016;2024-02-14T12:38:59;9.30;;;5.80;;
77400;SDS011;74775;45.476;11.016;2024-02-14T12:41:32;10.00;;;6.00;;
77400;SDS011;74775;45.476;11.016;2024-02-14T12:44:02;9.40;;;6.10;;
77400;SDS011;74775;45.476;11.016;2024-02-14T12:46:28;9.20;;;6.20;;
77400;SDS011;74775;45.476;11.016;2024-02-14T12:48:56;7.40;;;5.40;;
77400;SDS011;74775;45.476;11.016;2024-02-14T12:51:23;9.70;;;6.80;;
77400;SDS011;74775;45.476;11.016;2024-02-14T12:53:55;11.50;;;6.80;;
77400;SDS011;74775;45.476;11.016;2024-02-14T12:56:23;9.90;;;5.70;;
77400;SDS011;74775;45.476;11.016;2024-02-14T12:58:50;12.00;;;6.60;;
77400;SDS011;74775;45.476;11.016;2024-02-14T13:01:17;11.90;;;6.20;;
77400;SDS011;74775;45.476;11.016;2024-02-14T13:03:44;9.70;;;6.30;;
77400;SDS011;74775;45.476;11.016;2024-02-14T13:06:12;8.20;;;5.50;;
77400;SDS011;74775;45.476;11.016;2024-02-14T13:11:08;9.40;;;5.20;;
77400;SDS011;74775;45.476;11.016;2024-02-14T13:13:36;9.40;;;5.70;;
77400;SDS011;74775;45.476;11.016;2024-02-14T13:16:03;12.20;;;6.90;;
77400;SDS011;74775;45.476;11.016;2024-02-14T13:18:33;10.60;;;6.70;;
77400;SDS011;74775;45.476;11.016;2024-02-14T13:23:29;10.80;;;6.60;;
77400;SDS011;74775;45.476;11.016;2024-02-14T13:25:56;11.30;;;7.50;;
77400;SDS011;74775;45.476;11.016;2024-02-14T13:28:23;10.30;;;6.60;;
77400;SDS011;74775;45.476;11.016;2024-02-14T13:30:50;11.00;;;7.60;;
77400;SDS011;74775;45.476;11.016;2024-02-14T13:33:20;15.00;;;8.20;;
77400;SDS011;74775;45.476;11.016;2024-02-14T13:35:47;12.00;;;6.90;;
77400;SDS011;74775;45.476;11.016;2024-02-14T13:38:14;13.30;;;7.80;;
77400;SDS011;74775;45.476;11.016;2024-02-14T13:40:42;10.80;;;6.70;;
77400;SDS011;74775;45.476;11.016;2024-02-14T13:43:08;9.90;;;6.90;;
77400;SDS011;74775;45.476;11.016;2024-02-14T13:45:40;11.00;;;6.60;;
77400;SDS011;74775;45.476;11.016;2024-02-14T13:48:09;12.20;;;7.70;;
77400;SDS011;74775;45.476;11.016;2024-02-14T13:50:37;12.40;;;8.20;;
77400;SDS011;74775;45.476;11.016;2024-02-14T13:53:06;12.00;;;8.00;;
77400;SDS011;74775;45.476;11.016;2024-02-14T13:55:33;11.20;;;7.20;;
77400;SDS011;74775;45.476;11.016;2024-02-14T13:58:00;13.90;;;8.00;;
77400;SDS011;74775;45.476;11.016;2024-02-14T14:00:27;12.00;;;7.80;;
77400;SDS011;74775;45.476;11.016;2024-02-14T14:02:54;13.00;;;8.20;;
77400;SDS011;74775;45.476;11.016;2024-02-14T14:05:22;12.20;;;7.50;;
77400;SDS011;74775;45.476;11.016;2024-02-14T14:07:49;12.10;;;7.60;;
77400;SDS011;74775;45.476;11.016;2024-02-14T14:10:25;13.00;;;8.40;;
77400;SDS011;74775;45.476;11.016;2024-02-14T14:12:53;13.00;;;8.40;;
77400;SDS011;74775;45.476;11.016;2024-02-14T14:15:21;11.30;;;7.80;;
77400;SDS011;74775;45.476;11.016;2024-02-14T14:17:50;11.70;;;7.70;;
77400;SDS011;74775;45.476;11.016;2024-02-14T14:20:18;13.60;;;8.40;;
77400;SDS011;74775;45.476;11.016;2024-02-14T14:22:46;13.90;;;8.30;;
77400;SDS011;74775;45.476;11.016;2024-02-14T14:25:13;12.40;;;8.00;;
77400;SDS011;74775;45.476;11.016;2024-02-14T14:27:40;14.50;;;8.10;;
77400;SDS011;74775;45.476;11.016;2024-02-14T14:30:09;14.50;;;8.70;;
77400;SDS011;74775;45.476;11.016;2024-02-14T14:32:38;14.70;;;8.90;;
77400;SDS011;74775;45.476;11.016;2024-02-14T14:35:07;16.60;;;9.00;;
77400;SDS011;74775;45.476;11.016;2024-02-14T14:37:37;12.50;;;8.70;;
77400;SDS011;74775;45.476;11.016;2024-02-14T14:40:04;12.00;;;8.70;;
77400;SDS011;74775;45.476;11.016;2024-02-14T14:42:32;11.10;;;8.60;;
77400;SDS011;74775;45.476;11.016;2024-02-14T14:44:59;13.90;;;9.70;;
77400;SDS011;74775;45.476;11.016;2024-02-14T14:47:26;14.20;;;9.30;;
77400;SDS011;74775;45.476;11.016;2024-02-14T14:49:53;14.50;;;9.30;;
77400;SDS011;74775;45.476;11.016;2024-02-14T14:52:20;16.70;;;9.70;;